sensor_id;sensor_type;location;lat;lon;timestamp;P1;durP1;ratioP1;P2;durP2;ratioP2
57327;SDS011;43162;51.040;18.244;2022-12-08T10:29:51;53.30;;;24.60;;
57327;SDS011;43162;51.040;18.244;2022-12-08T10:33:30;56.30;;;25.70;;
57327;SDS011;43162;51.040;18.244;2022-12-08T10:37:08;40.70;;;20.60;;
57327;SDS011;43162;51.040;18.244;2022-12-08T10:40:46;42.80;;;19.30;;
57327;SDS011;43162;51.040;18.244;2022-12-08T10:44:23;42.00;;;19.70;;
57327;SDS011;43162;51.040;18.244;2022-12-08T10:48:05;37.60;;;19.20;;
57327;SDS011;43162;51.040;18.244;2022-12-08T10:51:52;40.30;;;20.50;;
57327;SDS011;43162;51.040;18.244;2022-12-08T10:55:38;26.80;;;14.10;;
57327;SDS011;43162;51.040;18.244;2022-12-08T10:59:35;25.30;;;13.60;;
57327;SDS011;43162;51.040;18.244;2022-12-08T11:03:19;24.70;;;14.60;;
57327;SDS011;43162;51.040;18.244;2022-12-08T11:07:00;24.40;;;14.20;;
57327;SDS011;43162;51.040;18.244;2022-12-08T11:10:42;37.60;;;16.40;;
57327;SDS011;43162;51.040;18.244;2022-12-08T11:18:23;31.30;;;16.60;;
57327;SDS011;43162;51.040;18.244;2022-12-08T11:22:26;24.80;;;13.10;;
57327;SDS011;43162;51.040;18.244;2022-12-08T11:30:24;17.10;;;10.80;;
57327;SDS011;43162;51.040;18.244;2022-12-08T11:34:03;23.50;;;12.80;;
57327;SDS011;43162;51.040;18.244;2022-12-08T11:37:41;24.90;;;12.50;;
57327;SDS011;43162;51.040;18.244;2022-12-08T11:41:22;18.00;;;10.80;;
57327;SDS011;43162;51.040;18.244;2022-12-08T11:45:02;17.90;;;9.80;;
57327;SDS011;43162;51.040;18.244;2022-12-08T11:52:45;17.90;;;9.60;;
57327;SDS011;43162;51.040;18.244;2022-12-08T11:56:26;21.90;;;10.80;;
57327;SDS011;43162;51.040;18.244;2022-12-08T12:00:12;19.60;;;10.60;;
57327;SDS011;43162;51.040;18.244;2022-12-08T12:04:02;16.00;;;8.80;;
57327;SDS011;43162;51.040;18.244;2022-12-08T12:08:02;23.50;;;12.90;;
57327;SDS011;43162;51.040;18.244;2022-12-08T12:19:48;17.50;;;8.00;;
57327;SDS011;43162;51.040;18.244;2022-12-08T12:23:40;19.10;;;10.20;;
57327;SDS011;43162;51.040;18.244;2022-12-08T12:27:33;17.80;;;9.20;;
57327;SDS011;43162;51.040;18.244;2022-12-08T12:31:17;13.80;;;8.20;;
57327;SDS011;43162;51.040;18.244;2022-12-08T12:34:59;14.60;;;10.00;;
57327;SDS011;43162;51.040;18.244;2022-12-08T12:38:48;20.90;;;12.80;;
57327;SDS011;43162;51.040;18.244;2022-12-08T12:42:47;22.40;;;10.90;;
57327;SDS011;43162;51.040;18.244;2022-12-08T12:50:44;20.00;;;9.90;;
57327;SDS011;43162;51.040;18.244;2022-12-08T12:54:20;22.40;;;11.50;;
57327;SDS011;43162;51.040;18.244;2022-12-08T12:57:57;25.40;;;12.70;;
57327;SDS011;43162;51.040;18.244;2022-12-08T13:01:35;28.30;;;13.10;;
57327;SDS011;43162;51.040;18.244;2022-12-08T13:05:34;30.00;;;14.80;;
57327;SDS011;43162;51.040;18.244;2022-12-08T13:08:54;31.70;;;15.20;;
57327;SDS011;43162;51.040;18.244;2022-12-08T13:12:32;33.00;;;16.20;;
57327;SDS011;43162;51.040;18.244;2022-12-08T13:19:46;32.30;;;15.50;;
57327;SDS011;43162;51.040;18.244;2022-12-08T13:31:01;34.40;;;18.50;;
57327;SDS011;43162;51.040;18.244;2022-12-08T13:34:51;47.80;;;17.80;;
57327;SDS011;43162;51.040;18.244;2022-12-08T13:38:31;44.60;;;21.20;;
57327;SDS011;43162;51.040;18.244;2022-12-08T13:45:48;32.10;;;15.80;;
57327;SDS011;43162;51.040;18.244;2022-12-08T13:49:42;46.10;;;23.10;;
57327;SDS011;43162;51.040;18.244;2022-12-08T13:53:04;39.40;;;18.30;;
57327;SDS011;43162;51.040;18.244;2022-12-08T13:57:06;33.80;;;16.00;;
57327;SDS011;43162;51.040;18.244;2022-12-08T14:00:52;32.70;;;16.10;;
57327;SDS011;43162;51.040;18.244;2022-12-08T14:04:34;34.80;;;15.80;;
57327;SDS011;43162;51.040;18.244;2022-12-08T14:08:18;35.90;;;17.90;;
57327;SDS011;43162;51.040;18.244;2022-12-08T14:11:58;36.30;;;14.80;;
57327;SDS011;43162;51.040;18.244;2022-12-08T14:15:38;29.30;;;13.40;;
57327;SDS011;43162;51.040;18.244;2022-12-08T14:19:23;34.00;;;14.70;;
57327;SDS011;43162;51.040;18.244;2022-12-08T14:23:05;29.00;;;15.90;;
57327;SDS011;43162;51.040;18.244;2022-12-08T14:26:43;30.40;;;13.10;;
57327;SDS011;43162;51.040;18.244;2022-12-08T14:30:40;26.40;;;13.10;;
57327;SDS011;43162;51.040;18.244;2022-12-08T14:34:17;41.90;;;17.60;;
57327;SDS011;43162;51.040;18.244;2022-12-08T14:37:58;61.70;;;22.70;;
57327;SDS011;43162;51.040;18.244;2022-12-08T14:41:39;62.90;;;27.00;;
57327;SDS011;43162;51.040;18.244;2022-12-08T14:45:17;66.00;;;27.10;;
57327;SDS011;43162;51.040;18.244;2022-12-08T14:48:54;76.10;;;29.40;;
57327;SDS011;43162;51.040;18.244;2022-12-08T14:52:33;82.90;;;34.50;;
57327;SDS011;43162;51.040;18.244;2022-12-08T14:56:19;73.90;;;30.30;;
57327;SDS011;43162;51.040;18.244;2022-12-08T14:58:47;49.60;;;24.30;;
57327;SDS011;43162;51.040;18.244;2022-12-08T15:01:16;73.10;;;31.20;;
57327;SDS011;43162;51.040;18.244;2022-12-08T15:03:46;52.30;;;25.00;;
57327;SDS011;43162;51.040;18.244;2022-12-08T15:06:13;50.60;;;24.90;;
57327;SDS011;43162;51.040;18.244;2022-12-08T15:08:55;42.60;;;17.30;;
57327;SDS011;43162;51.040;18.244;2022-12-08T15:11:28;33.40;;;16.30;;
57327;SDS011;43162;51.040;18.244;2022-12-08T15:16:28;58.80;;;21.00;;
57327;SDS011;43162;51.040;18.244;2022-12-08T15:19:03;51.90;;;19.30;;
57327;SDS011;43162;51.040;18.244;2022-12-08T15:21:37;42.90;;;21.30;;
57327;SDS011;43162;51.040;18.244;2022-12-08T15:24:03;46.30;;;22.50;;
57327;SDS011;43162;51.040;18.244;2022-12-08T15:26:28;29.90;;;16.10;;
57327;SDS011;43162;51.040;18.244;2022-12-08T15:31:46;34.30;;;19.10;;
57327;SDS011;43162;51.040;18.244;2022-12-08T15:34:12;31.70;;;15.90;;
57327;SDS011;43162;51.040;18.244;2022-12-08T15:36:38;38.80;;;17.50;;
57327;SDS011;43162;51.040;18.244;2022-12-08T15:39:06;33.90;;;17.50;;
57327;SDS011;43162;51.040;18.244;2022-12-08T15:41:43;34.00;;;16.10;;
57327;SDS011;43162;51.040;18.244;2022-12-08T15:44:08;39.30;;;17.40;;
57327;SDS011;43162;51.040;18.244;2022-12-08T15:46:34;34.20;;;16.40;;
57327;SDS011;43162;51.040;18.244;2022-12-08T15:49:00;37.30;;;19.10;;
57327;SDS011;43162;51.040;18.244;2022-12-08T15:51:26;41.30;;;19.60;;
57327;SDS011;43162;51.040;18.244;2022-12-08T15:53:55;34.60;;;18.70;;
57327;SDS011;43162;51.040;18.244;2022-12-08T15:56:21;40.10;;;19.90;;
57327;SDS011;43162;51.040;18.244;2022-12-08T15:58:46;38.10;;;17.20;;
57327;SDS011;43162;51.040;18.244;2022-12-08T16:01:12;47.50;;;22.50;;
57327;SDS011;43162;51.040;18.244;2022-12-08T16:03:38;55.60;;;26.00;;
57327;SDS011;43162;51.040;18.244;2022-12-08T16:06:03;68.60;;;32.20;;
57327;SDS011;43162;51.040;18.244;2022-12-08T16:08:31;94.10;;;42.10;;
57327;SDS011;43162;51.040;18.244;2022-12-08T16:10:57;98.20;;;39.30;;
57327;SDS011;43162;51.040;18.244;2022-12-08T16:13:42;63.30;;;25.90;;
57327;SDS011;43162;51.040;18.244;2022-12-08T16:16:16;34.30;;;19.20;;
57327;SDS011;43162;51.040;18.244;2022-12-08T16:18:46;52.90;;;20.90;;
57327;SDS011;43162;51.040;18.244;2022-12-08T16:21:13;60.50;;;22.30;;
57327;SDS011;43162;51.040;18.244;2022-12-08T16:23:39;51.60;;;20.60;;
57327;SDS011;43162;51.040;18.244;2022-12-08T16:26:05;37.70;;;16.90;;
57327;SDS011;43162;51.040;18.244;2022-12-08T16:28:32;37.20;;;15.90;;
57327;SDS011;43162;51.040;18.244;2022-12-08T16:30:58;33.20;;;14.50;;
57327;SDS011;43162;51.040;18.244;2022-12-08T16:33:23;31.90;;;15.00;;
57327;SDS011;43162;51.040;18.244;2022-12-08T16:35:49;32.00;;;16.00;;
57327;SDS011;43162;51.040;18.244;2022-12-08T16:38:15;32.70;;;16.20;;
57327;SDS011;43162;51.040;18.244;2022-12-08T16:40:46;34.90;;;14.70;;
57327;SDS011;43162;51.040;18.244;2022-12-08T16:43:32;33.70;;;15.90;;
57327;SDS011;43162;51.040;18.244;2022-12-08T16:45:59;36.50;;;18.30;;
57327;SDS011;43162;51.040;18.244;2022-12-08T16:48:25;46.50;;;22.80;;
57327;SDS011;43162;51.040;18.244;2022-12-08T16:50:52;49.40;;;23.50;;
57327;SDS011;43162;51.040;18.244;2022-12-08T16:53:18;47.90;;;23.80;;
57327;SDS011;43162;51.040;18.244;2022-12-08T16:55:47;47.60;;;25.80;;
57327;SDS011;43162;51.040;18.244;2022-12-08T16:58:13;57.10;;;28.30;;
57327;SDS011;43162;51.040;18.244;2022-12-08T17:00:39;47.20;;;21.90;;
57327;SDS011;43162;51.040;18.244;2022-12-08T17:03:06;33.80;;;19.00;;
57327;SDS011;43162;51.040;18.244;2022-12-08T17:05:33;39.20;;;20.40;;
57327;SDS011;43162;51.040;18.244;2022-12-08T17:07:59;44.30;;;22.60;;
57327;SDS011;43162;51.040;18.244;2022-12-08T17:10:28;35.20;;;17.80;;
57327;SDS011;43162;51.040;18.244;2022-12-08T17:12:54;35.00;;;17.00;;
57327;SDS011;43162;51.040;18.244;2022-12-08T17:15:23;30.20;;;15.60;;
57327;SDS011;43162;51.040;18.244;2022-12-08T17:17:50;31.00;;;16.10;;
57327;SDS011;43162;51.040;18.244;2022-12-08T17:20:20;29.30;;;16.00;;
57327;SDS011;43162;51.040;18.244;2022-12-08T17:22:48;36.10;;;16.80;;
57327;SDS011;43162;51.040;18.244;2022-12-08T17:25:14;37.20;;;18.00;;
57327;SDS011;43162;51.040;18.244;2022-12-08T17:27:40;42.40;;;19.60;;
57327;SDS011;43162;51.040;18.244;2022-12-08T17:30:06;45.00;;;22.70;;
57327;SDS011;43162;51.040;18.244;2022-12-08T17:32:33;49.50;;;21.90;;
57327;SDS011;43162;51.040;18.244;2022-12-08T17:34:58;46.40;;;24.00;;
57327;SDS011;43162;51.040;18.244;2022-12-08T17:37:24;36.80;;;22.00;;
57327;SDS011;43162;51.040;18.244;2022-12-08T17:39:50;41.10;;;21.10;;
57327;SDS011;43162;51.040;18.244;2022-12-08T17:42:16;72.30;;;30.70;;
57327;SDS011;43162;51.040;18.244;2022-12-08T17:44:42;61.00;;;28.70;;
57327;SDS011;43162;51.040;18.244;2022-12-08T17:47:08;47.20;;;24.40;;
57327;SDS011;43162;51.040;18.244;2022-12-08T17:49:34;46.20;;;22.70;;
57327;SDS011;43162;51.040;18.244;2022-12-08T17:52:03;51.70;;;26.20;;
57327;SDS011;43162;51.040;18.244;2022-12-08T17:54:31;61.50;;;28.40;;
57327;SDS011;43162;51.040;18.244;2022-12-08T17:56:57;65.20;;;28.20;;
57327;SDS011;43162;51.040;18.244;2022-12-08T17:59:23;49.90;;;22.20;;
57327;SDS011;43162;51.040;18.244;2022-12-08T18:01:54;51.10;;;20.70;;
57327;SDS011;43162;51.040;18.244;2022-12-08T18:04:21;76.50;;;40.80;;
57327;SDS011;43162;51.040;18.244;2022-12-08T18:06:46;53.30;;;30.60;;
57327;SDS011;43162;51.040;18.244;2022-12-08T18:09:13;44.90;;;23.30;;
57327;SDS011;43162;51.040;18.244;2022-12-08T18:11:39;40.50;;;23.30;;
57327;SDS011;43162;51.040;18.244;2022-12-08T18:14:05;49.40;;;23.40;;
57327;SDS011;43162;51.040;18.244;2022-12-08T18:16:40;45.30;;;21.80;;
57327;SDS011;43162;51.040;18.244;2022-12-08T18:19:17;43.50;;;22.10;;
57327;SDS011;43162;51.040;18.244;2022-12-08T18:21:42;50.00;;;22.40;;
57327;SDS011;43162;51.040;18.244;2022-12-08T18:24:12;46.30;;;22.90;;
57327;SDS011;43162;51.040;18.244;2022-12-08T18:26:41;56.60;;;24.70;;
57327;SDS011;43162;51.040;18.244;2022-12-08T18:29:07;68.10;;;26.70;;
57327;SDS011;43162;51.040;18.244;2022-12-08T18:31:32;66.00;;;26.00;;
57327;SDS011;43162;51.040;18.244;2022-12-08T18:33:58;64.40;;;26.50;;
57327;SDS011;43162;51.040;18.244;2022-12-08T18:36:24;70.00;;;27.70;;
57327;SDS011;43162;51.040;18.244;2022-12-08T18:38:50;64.80;;;25.90;;
57327;SDS011;43162;51.040;18.244;2022-12-08T18:41:18;58.80;;;22.40;;
57327;SDS011;43162;51.040;18.244;2022-12-08T18:43:47;62.90;;;26.40;;
57327;SDS011;43162;51.040;18.244;2022-12-08T18:46:14;56.20;;;23.20;;
57327;SDS011;43162;51.040;18.244;2022-12-08T18:48:44;46.40;;;19.40;;
57327;SDS011;43162;51.040;18.244;2022-12-08T18:51:21;44.30;;;20.90;;
57327;SDS011;43162;51.040;18.244;2022-12-08T18:53:47;38.00;;;17.20;;
57327;SDS011;43162;51.040;18.244;2022-12-08T18:56:24;48.40;;;21.20;;
57327;SDS011;43162;51.040;18.244;2022-12-08T18:58:58;40.90;;;19.70;;
57327;SDS011;43162;51.040;18.244;2022-12-08T19:01:26;42.40;;;20.00;;
57327;SDS011;43162;51.040;18.244;2022-12-08T19:03:51;38.40;;;17.90;;
57327;SDS011;43162;51.040;18.244;2022-12-08T19:06:17;35.60;;;18.00;;
57327;SDS011;43162;51.040;18.244;2022-12-08T19:08:43;26.60;;;14.60;;
57327;SDS011;43162;51.040;18.244;2022-12-08T19:11:16;34.80;;;15.90;;
57327;SDS011;43162;51.040;18.244;2022-12-08T19:13:45;37.90;;;19.40;;
57327;SDS011;43162;51.040;18.244;2022-12-08T19:16:13;44.30;;;21.30;;
57327;SDS011;43162;51.040;18.244;2022-12-08T19:18:39;41.20;;;19.50;;
57327;SDS011;43162;51.040;18.244;2022-12-08T19:21:05;44.70;;;18.50;;
57327;SDS011;43162;51.040;18.244;2022-12-08T19:23:34;39.40;;;19.90;;
57327;SDS011;43162;51.040;18.244;2022-12-08T19:26:00;37.90;;;19.90;;
57327;SDS011;43162;51.040;18.244;2022-12-08T19:28:27;39.30;;;19.20;;
57327;SDS011;43162;51.040;18.244;2022-12-08T19:30:53;35.20;;;17.70;;
57327;SDS011;43162;51.040;18.244;2022-12-08T19:33:18;35.00;;;17.00;;
57327;SDS011;43162;51.040;18.244;2022-12-08T19:35:44;37.90;;;17.20;;
57327;SDS011;43162;51.040;18.244;2022-12-08T19:38:11;40.30;;;19.10;;
57327;SDS011;43162;51.040;18.244;2022-12-08T19:40:41;45.10;;;18.30;;
57327;SDS011;43162;51.040;18.244;2022-12-08T19:43:29;37.10;;;18.50;;
57327;SDS011;43162;51.040;18.244;2022-12-08T19:46:14;37.40;;;17.60;;
57327;SDS011;43162;51.040;18.244;2022-12-08T19:48:43;46.30;;;20.00;;
57327;SDS011;43162;51.040;18.244;2022-12-08T19:51:09;42.10;;;20.10;;
57327;SDS011;43162;51.040;18.244;2022-12-08T19:53:35;40.90;;;19.20;;
57327;SDS011;43162;51.040;18.244;2022-12-08T19:56:01;37.20;;;19.50;;
57327;SDS011;43162;51.040;18.244;2022-12-08T19:58:27;39.30;;;16.40;;
57327;SDS011;43162;51.040;18.244;2022-12-08T20:00:53;51.30;;;21.30;;
57327;SDS011;43162;51.040;18.244;2022-12-08T20:03:20;40.20;;;17.90;;
57327;SDS011;43162;51.040;18.244;2022-12-08T20:05:46;51.50;;;20.90;;
57327;SDS011;43162;51.040;18.244;2022-12-08T20:08:15;71.90;;;30.80;;
57327;SDS011;43162;51.040;18.244;2022-12-08T20:10:41;72.10;;;33.40;;
57327;SDS011;43162;51.040;18.244;2022-12-08T20:13:09;77.60;;;35.10;;
57327;SDS011;43162;51.040;18.244;2022-12-08T20:15:54;65.90;;;35.80;;
57327;SDS011;43162;51.040;18.244;2022-12-08T20:18:19;59.90;;;34.30;;
57327;SDS011;43162;51.040;18.244;2022-12-08T20:20:46;56.30;;;31.10;;
57327;SDS011;43162;51.040;18.244;2022-12-08T20:23:12;57.40;;;32.10;;
57327;SDS011;43162;51.040;18.244;2022-12-08T20:28:56;50.10;;;25.30;;
57327;SDS011;43162;51.040;18.244;2022-12-08T20:32:08;40.80;;;19.50;;
57327;SDS011;43162;51.040;18.244;2022-12-08T20:34:33;26.80;;;14.90;;
57327;SDS011;43162;51.040;18.244;2022-12-08T20:36:59;36.10;;;15.70;;
57327;SDS011;43162;51.040;18.244;2022-12-08T20:39:25;33.80;;;18.30;;
57327;SDS011;43162;51.040;18.244;2022-12-08T20:41:50;40.00;;;21.20;;
57327;SDS011;43162;51.040;18.244;2022-12-08T20:44:18;39.10;;;20.20;;
57327;SDS011;43162;51.040;18.244;2022-12-08T20:46:44;56.30;;;27.40;;
57327;SDS011;43162;51.040;18.244;2022-12-08T20:49:10;74.70;;;33.20;;
57327;SDS011;43162;51.040;18.244;2022-12-08T20:51:35;79.70;;;38.40;;
57327;SDS011;43162;51.040;18.244;2022-12-08T20:54:01;75.10;;;31.80;;
57327;SDS011;43162;51.040;18.244;2022-12-08T20:56:28;69.10;;;30.90;;
57327;SDS011;43162;51.040;18.244;2022-12-08T20:58:56;75.20;;;30.80;;
57327;SDS011;43162;51.040;18.244;2022-12-08T21:01:22;81.50;;;34.50;;
57327;SDS011;43162;51.040;18.244;2022-12-08T21:03:48;84.80;;;39.00;;
57327;SDS011;43162;51.040;18.244;2022-12-08T21:06:15;80.70;;;33.20;;
57327;SDS011;43162;51.040;18.244;2022-12-08T21:08:40;49.30;;;25.50;;
57327;SDS011;43162;51.040;18.244;2022-12-08T21:11:07;54.60;;;26.50;;
57327;SDS011;43162;51.040;18.244;2022-12-08T21:13:35;48.20;;;24.00;;
57327;SDS011;43162;51.040;18.244;2022-12-08T21:16:02;55.60;;;26.20;;
57327;SDS011;43162;51.040;18.244;2022-12-08T21:18:29;58.60;;;26.10;;
57327;SDS011;43162;51.040;18.244;2022-12-08T21:21:01;49.40;;;24.10;;
57327;SDS011;43162;51.040;18.244;2022-12-08T21:23:28;47.20;;;22.80;;
57327;SDS011;43162;51.040;18.244;2022-12-08T21:25:54;41.80;;;21.00;;
57327;SDS011;43162;51.040;18.244;2022-12-08T21:28:19;45.20;;;19.50;;
57327;SDS011;43162;51.040;18.244;2022-12-08T21:30:45;39.10;;;20.80;;
57327;SDS011;43162;51.040;18.244;2022-12-08T21:33:11;43.30;;;21.00;;
57327;SDS011;43162;51.040;18.244;2022-12-08T21:35:38;42.50;;;20.20;;
57327;SDS011;43162;51.040;18.244;2022-12-08T21:38:04;36.80;;;19.30;;
57327;SDS011;43162;51.040;18.244;2022-12-08T21:40:33;38.00;;;19.20;;
57327;SDS011;43162;51.040;18.244;2022-12-08T21:42:59;36.50;;;19.10;;
57327;SDS011;43162;51.040;18.244;2022-12-08T21:45:26;33.30;;;17.70;;
57327;SDS011;43162;51.040;18.244;2022-12-08T21:47:52;34.00;;;16.60;;
57327;SDS011;43162;51.040;18.244;2022-12-08T21:50:18;34.20;;;18.10;;
57327;SDS011;43162;51.040;18.244;2022-12-08T21:52:44;35.20;;;18.20;;
57327;SDS011;43162;51.040;18.244;2022-12-08T21:55:12;29.90;;;16.60;;
57327;SDS011;43162;51.040;18.244;2022-12-08T21:57:39;35.00;;;18.50;;
57327;SDS011;43162;51.040;18.244;2022-12-08T22:00:05;39.50;;;20.20;;
57327;SDS011;43162;51.040;18.244;2022-12-08T22:02:32;38.50;;;21.40;;
57327;SDS011;43162;51.040;18.244;2022-12-08T22:04:57;91.60;;;49.80;;
57327;SDS011;43162;51.040;18.244;2022-12-08T22:07:23;140.10;;;69.30;;
57327;SDS011;43162;51.040;18.244;2022-12-08T22:09:48;130.00;;;61.30;;
57327;SDS011;43162;51.040;18.244;2022-12-08T22:12:14;111.70;;;50.20;;
57327;SDS011;43162;51.040;18.244;2022-12-08T22:14:41;94.90;;;38.50;;
57327;SDS011;43162;51.040;18.244;2022-12-08T22:17:07;71.70;;;30.30;;
57327;SDS011;43162;51.040;18.244;2022-12-08T22:19:33;53.10;;;24.30;;
57327;SDS011;43162;51.040;18.244;2022-12-08T22:21:59;42.80;;;21.40;;
57327;SDS011;43162;51.040;18.244;2022-12-08T22:24:24;40.60;;;19.90;;
57327;SDS011;43162;51.040;18.244;2022-12-08T22:26:50;50.00;;;25.00;;
57327;SDS011;43162;51.040;18.244;2022-12-08T22:29:15;45.50;;;22.70;;
57327;SDS011;43162;51.040;18.244;2022-12-08T22:31:42;60.00;;;29.70;;
57327;SDS011;43162;51.040;18.244;2022-12-08T22:34:08;53.60;;;27.40;;
57327;SDS011;43162;51.040;18.244;2022-12-08T22:36:33;60.20;;;26.70;;
57327;SDS011;43162;51.040;18.244;2022-12-08T22:38:59;69.40;;;29.90;;
57327;SDS011;43162;51.040;18.244;2022-12-08T22:41:26;84.80;;;42.40;;
57327;SDS011;43162;51.040;18.244;2022-12-08T22:43:52;93.70;;;45.10;;
57327;SDS011;43162;51.040;18.244;2022-12-08T22:46:18;129.00;;;57.90;;
57327;SDS011;43162;51.040;18.244;2022-12-08T22:48:46;100.20;;;44.70;;
57327;SDS011;43162;51.040;18.244;2022-12-08T22:51:12;93.80;;;42.10;;
57327;SDS011;43162;51.040;18.244;2022-12-08T22:53:38;78.70;;;35.10;;
57327;SDS011;43162;51.040;18.244;2022-12-08T22:56:06;57.20;;;29.60;;
57327;SDS011;43162;51.040;18.244;2022-12-08T22:58:34;50.90;;;24.00;;
57327;SDS011;43162;51.040;18.244;2022-12-08T23:01:00;52.30;;;24.50;;
57327;SDS011;43162;51.040;18.244;2022-12-08T23:03:26;50.60;;;22.90;;
57327;SDS011;43162;51.040;18.244;2022-12-08T23:05:52;44.70;;;22.40;;
57327;SDS011;43162;51.040;18.244;2022-12-08T23:08:17;49.90;;;23.60;;
57327;SDS011;43162;51.040;18.244;2022-12-08T23:10:46;46.50;;;22.40;;
57327;SDS011;43162;51.040;18.244;2022-12-08T23:13:12;44.50;;;22.40;;
57327;SDS011;43162;51.040;18.244;2022-12-08T23:15:38;46.50;;;22.60;;
57327;SDS011;43162;51.040;18.244;2022-12-08T23:18:05;43.30;;;19.30;;
57327;SDS011;43162;51.040;18.244;2022-12-08T23:20:32;38.30;;;17.90;;
57327;SDS011;43162;51.040;18.244;2022-12-08T23:22:58;39.20;;;18.50;;
57327;SDS011;43162;51.040;18.244;2022-12-08T23:25:24;44.60;;;20.20;;
57327;SDS011;43162;51.040;18.244;2022-12-08T23:27:49;41.80;;;19.80;;
57327;SDS011;43162;51.040;18.244;2022-12-08T23:30:15;47.90;;;21.50;;
57327;SDS011;43162;51.040;18.244;2022-12-08T23:32:40;41.50;;;19.40;;
57327;SDS011;43162;51.040;18.244;2022-12-08T23:35:06;32.80;;;16.90;;
57327;SDS011;43162;51.040;18.244;2022-12-08T23:37:32;41.90;;;19.50;;
57327;SDS011;43162;51.040;18.244;2022-12-08T23:39:57;39.20;;;18.70;;
57327;SDS011;43162;51.040;18.244;2022-12-08T23:42:23;45.00;;;21.40;;
57327;SDS011;43162;51.040;18.244;2022-12-08T23:44:49;33.60;;;17.60;;
57327;SDS011;43162;51.040;18.244;2022-12-08T23:47:14;32.10;;;16.80;;
57327;SDS011;43162;51.040;18.244;2022-12-08T23:49:40;41.10;;;19.30;;
57327;SDS011;43162;51.040;18.244;2022-12-08T23:52:05;39.20;;;19.80;;
57327;SDS011;43162;51.040;18.244;2022-12-08T23:54:31;42.30;;;21.20;;
57327;SDS011;43162;51.040;18.244;2022-12-08T23:56:56;39.60;;;19.80;;
57327;SDS011;43162;51.040;18.244;2022-12-08T23:59:22;46.70;;;20.50;;
